Time;durP1;ratioP1;P1;durP2;ratioP2;P2;SDS_P1;SDS_P2;PMS_P1;PMS_P2;Temp;Humidity;BMP_temperature;BMP_pressure;BME280_temperature;BME280_humidity;BME280_pressure;Samples;Min_cycle;Max_cycle;Signal;HPM_P1;HPM_P2
2022/11/30 00:00:45;;;;;;;;;;;19.50;48.20;;;;;;5057866;27;19912;-54
2022/11/30 00:03:10;;;;;;;;;;;19.50;48.30;;;;;;5048375;28;19917;-55
2022/11/30 00:05:36;;;;;;;;;;;19.50;48.10;;;;;;5048394;27;19916;-56
2022/11/30 00:08:01;;;;;;;;;;;19.50;48.10;;;;;;5046518;28;19964;-54
2022/11/30 00:10:26;;;;;;;;;;;19.50;48.10;;;;;;5046507;28;20008;-55
2022/11/30 00:12:52;;;;;;;;;;;19.50;48.00;;;;;;5046563;28;19944;-56
2022/11/30 00:15:18;;;;;;;;;;;19.50;48.20;;;;;;5047975;28;19932;-55
2022/11/30 00:17:43;;;;;;;;;;;19.50;48.30;;;;;;5048592;28;19917;-56
2022/11/30 00:20:09;;;;;;;;;;;19.50;48.20;;;;;;5044903;28;19969;-55
2022/11/30 00:22:34;;;;;;;;;;;19.50;48.10;;;;;;5047737;28;19921;-56
2022/11/30 00:25:02;;;;;;;;;;;19.50;48.30;;;;;;5046385;27;20287;-54
2022/11/30 00:27:31;;;;;;;;;;;19.40;48.50;;;;;;5049146;28;19921;-55
2022/11/30 00:29:56;;;;;;;;;;;19.40;48.70;;;;;;5046750;28;19921;-56
2022/11/30 00:32:22;;;;;;;;;;;19.40;48.40;;;;;;5048525;28;20228;-55
2022/11/30 00:34:47;;;;;;;;;;;19.30;48.30;;;;;;5032205;28;19916;-55
2022/11/30 00:37:13;;;;;;;;;;;19.20;48.70;;;;;;5046649;28;19982;-56
2022/11/30 00:39:39;;;;;;;;;;;19.30;48.20;;;;;;5046822;27;19958;-56
2022/11/30 00:42:04;;;;;;;;;;;19.40;48.70;;;;;;5048036;28;19952;-55
2022/11/30 00:44:30;;;;;;;;;;;19.40;48.50;;;;;;5045417;28;20496;-56
2022/11/30 00:46:55;;;;;;;;;;;19.30;48.80;;;;;;5046819;28;19952;-55
2022/11/30 00:49:20;;;;;;;;;;;19.30;49.00;;;;;;5047270;28;19999;-54
2022/11/30 00:51:46;;;;;;;;;;;19.30;49.10;;;;;;5045567;28;19920;-55
2022/11/30 00:54:11;;;;;;;;;;;19.20;49.10;;;;;;5051645;28;19920;-54
2022/11/30 00:56:37;;;;;;;;;;;19.20;49.10;;;;;;5045888;28;20015;-54
2022/11/30 00:59:02;;;;;;;;;;;19.20;49.10;;;;;;5047216;27;19981;-57
2022/11/30 01:01:28;;;;;;;;;;;19.20;49.10;;;;;;5046431;27;20372;-54
2022/11/30 01:03:53;;;;;;;;;;;19.20;49.80;;;;;;5048101;28;19920;-56
2022/11/30 01:06:18;;;;;;;;;;;19.20;49.10;;;;;;5046442;27;19913;-56
2022/11/30 01:08:44;;;;;;;;;;;19.20;48.90;;;;;;5046236;28;19920;-55
2022/11/30 01:11:23;;;;;;;;;;;19.10;48.90;;;;;;5045610;27;20371;-55
2022/11/30 01:13:49;;;;;;;;;;;19.10;49.00;;;;;;5045785;28;19921;-55
2022/11/30 01:16:15;;;;;;;;;;;19.10;49.10;;;;;;5047325;27;19913;-54
2022/11/30 01:18:41;;;;;;;;;;;19.10;48.80;;;;;;5045451;27;19917;-55
2022/11/30 01:21:07;;;;;;;;;;;19.10;49.00;;;;;;5046959;28;19964;-56
2022/11/30 01:23:32;;;;;;;;;;;19.10;49.20;;;;;;5047366;28;20426;-55
2022/11/30 01:25:58;;;;;;;;;;;19.10;49.00;;;;;;5048072;28;19916;-54
2022/11/30 01:28:23;;;;;;;;;;;19.10;48.70;;;;;;5047439;27;20283;-56
2022/11/30 01:30:59;;;;;;;;;;;19.10;49.10;;;;;;5045355;28;19929;-56
2022/11/30 01:33:24;;;;;;;;;;;19.10;49.10;;;;;;5048502;27;20316;-56
2022/11/30 01:36:04;;;;;;;;;;;19.10;49.00;;;;;;5046643;28;19913;-55
2022/11/30 01:38:30;;;;;;;;;;;19.10;49.00;;;;;;5048136;28;19919;-55
2022/11/30 01:40:55;;;;;;;;;;;19.10;49.00;;;;;;5045002;28;19920;-55
2022/11/30 01:43:35;;;;;;;;;;;19.00;49.10;;;;;;5047095;28;20416;-55
2022/11/30 01:46:00;;;;;;;;;;;19.00;49.10;;;;;;5029428;27;19917;-55
2022/11/30 01:48:25;;;;;;;;;;;19.00;49.10;;;;;;5051019;28;19920;-54
2022/11/30 01:50:51;;;;;;;;;;;19.00;49.10;;;;;;5045314;28;19921;-55
2022/11/30 01:53:16;;;;;;;;;;;19.00;49.00;;;;;;5051245;28;19981;-55
2022/11/30 01:55:42;;;;;;;;;;;19.00;49.00;;;;;;5049142;28;19931;-55
2022/11/30 01:58:11;;;;;;;;;;;19.00;49.10;;;;;;5048833;28;20019;-54
2022/11/30 02:00:37;;;;;;;;;;;19.00;49.10;;;;;;5029240;28;19920;-55
2022/11/30 02:03:05;;;;;;;;;;;19.00;49.10;;;;;;5045248;27;20291;-55
2022/11/30 02:05:32;;;;;;;;;;;18.90;49.00;;;;;;5047804;28;19916;-55
2022/11/30 02:07:57;;;;;;;;;;;19.00;49.10;;;;;;5028803;28;19920;-54
2022/11/30 02:10:26;;;;;;;;;;;19.00;49.10;;;;;;5048081;28;21639;-54
2022/11/30 02:13:07;;;;;;;;;;;18.90;49.20;;;;;;5044017;27;19946;-55
2022/11/30 02:15:36;;;;;;;;;;;18.90;49.00;;;;;;5046270;28;19924;-54
2022/11/30 02:18:04;;;;;;;;;;;18.90;49.10;;;;;;5032147;28;19917;-55
2022/11/30 02:20:32;;;;;;;;;;;18.90;49.10;;;;;;5042253;27;19924;-55
2022/11/30 02:23:08;;;;;;;;;;;18.90;49.20;;;;;;5028338;27;19920;-54
2022/11/30 02:25:52;;;;;;;;;;;18.90;49.10;;;;;;5045281;28;19974;-56
2022/11/30 02:28:37;;;;;;;;;;;18.90;49.10;;;;;;5046072;28;19917;-54
2022/11/30 02:31:03;;;;;;;;;;;19.00;49.00;;;;;;5032579;28;20450;-54
2022/11/30 02:33:29;;;;;;;;;;;19.10;48.90;;;;;;5035168;28;19912;-56
2022/11/30 02:35:54;;;;;;;;;;;19.20;48.70;;;;;;5033171;28;20016;-54
2022/11/30 02:38:20;;;;;;;;;;;19.20;48.50;;;;;;5043125;28;19964;-55
2022/11/30 02:40:46;;;;;;;;;;;19.30;48.30;;;;;;5042280;28;19917;-55
2022/11/30 02:43:11;;;;;;;;;;;19.40;48.00;;;;;;5043606;28;19916;-55
2022/11/30 02:45:39;;;;;;;;;;;19.50;47.80;;;;;;5032368;28;19920;-55
2022/11/30 02:48:08;;;;;;;;;;;19.60;47.60;;;;;;5029843;28;20016;-54
2022/11/30 02:50:38;;;;;;;;;;;19.70;47.40;;;;;;5045350;28;19971;-55
2022/11/30 02:53:04;;;;;;;;;;;19.80;47.30;;;;;;5038346;27;19924;-55
2022/11/30 02:55:30;;;;;;;;;;;19.80;47.10;;;;;;5047397;27;19913;-55
2022/11/30 02:57:56;;;;;;;;;;;19.90;47.00;;;;;;5036500;27;19936;-55
2022/11/30 03:00:21;;;;;;;;;;;19.90;46.90;;;;;;5050112;27;20319;-55
2022/11/30 03:02:47;;;;;;;;;;;19.90;46.90;;;;;;5047798;28;19939;-55
2022/11/30 03:05:12;;;;;;;;;;;19.90;46.90;;;;;;5049252;28;19920;-55
2022/11/30 03:07:38;;;;;;;;;;;19.90;46.90;;;;;;5049149;28;19973;-55
2022/11/30 03:10:04;;;;;;;;;;;19.90;46.80;;;;;;5048346;28;19924;-55
2022/11/30 03:12:29;;;;;;;;;;;19.90;46.80;;;;;;5046616;28;19916;-55
2022/11/30 03:14:54;;;;;;;;;;;20.00;46.80;;;;;;5050051;27;19943;-54
2022/11/30 03:17:20;;;;;;;;;;;20.00;46.80;;;;;;5047283;28;20055;-55
2022/11/30 03:19:45;;;;;;;;;;;20.00;46.70;;;;;;5047125;28;19944;-56
2022/11/30 03:22:11;;;;;;;;;;;20.00;46.70;;;;;;5047146;28;19912;-55
2022/11/30 03:24:36;;;;;;;;;;;20.00;46.70;;;;;;5046529;28;20009;-56
2022/11/30 03:27:02;;;;;;;;;;;20.00;46.70;;;;;;5045304;28;20662;-56
2022/11/30 03:29:27;;;;;;;;;;;20.00;46.70;;;;;;5046780;28;20043;-55
2022/11/30 03:31:53;;;;;;;;;;;20.00;46.20;;;;;;5049304;28;20003;-55
2022/11/30 03:34:18;;;;;;;;;;;20.00;46.50;;;;;;5049190;28;20519;-54
2022/11/30 03:36:43;;;;;;;;;;;20.00;46.20;;;;;;5047776;28;20348;-55
2022/11/30 03:39:09;;;;;;;;;;;20.00;46.30;;;;;;5045166;28;19919;-56
2022/11/30 03:41:34;;;;;;;;;;;20.00;46.40;;;;;;5046972;28;19913;-55
2022/11/30 03:44:00;;;;;;;;;;;20.00;46.10;;;;;;5048326;28;21564;-55
2022/11/30 03:46:26;;;;;;;;;;;20.10;46.00;;;;;;5035797;27;20352;-55
2022/11/30 03:48:52;;;;;;;;;;;20.00;46.20;;;;;;5050290;27;19931;-55
2022/11/30 03:51:17;;;;;;;;;;;20.00;45.90;;;;;;5047899;28;19924;-55
2022/11/30 03:53:43;;;;;;;;;;;20.00;46.30;;;;;;5049057;28;20379;-56
2022/11/30 03:56:08;;;;;;;;;;;20.00;46.30;;;;;;5049509;28;20028;-57
2022/11/30 03:58:34;;;;;;;;;;;20.00;46.40;;;;;;5054220;27;19927;-55
2022/11/30 04:01:02;;;;;;;;;;;20.00;46.50;;;;;;5047175;28;20359;-55
2022/11/30 04:03:28;;;;;;;;;;;19.90;46.60;;;;;;5046983;28;20384;-55
2022/11/30 04:05:53;;;;;;;;;;;19.90;46.70;;;;;;5052867;28;19993;-56
2022/11/30 04:08:19;;;;;;;;;;;19.90;46.70;;;;;;5050779;28;19928;-55
2022/11/30 04:10:51;;;;;;;;;;;19.90;46.60;;;;;;5048073;28;20058;-56
2022/11/30 04:13:16;;;;;;;;;;;20.00;46.50;;;;;;5047184;28;20261;-56
2022/11/30 04:15:42;;;;;;;;;;;20.00;46.40;;;;;;5045037;28;19924;-55
2022/11/30 04:18:07;;;;;;;;;;;20.00;46.30;;;;;;5046764;28;19973;-55
2022/11/30 04:20:32;;;;;;;;;;;20.00;46.20;;;;;;5046318;28;19959;-55
2022/11/30 04:22:58;;;;;;;;;;;20.00;46.20;;;;;;5048335;27;19916;-55
2022/11/30 04:25:23;;;;;;;;;;;20.00;46.20;;;;;;5046620;28;19924;-56
2022/11/30 04:27:49;;;;;;;;;;;20.00;46.30;;;;;;5048520;28;19965;-55
2022/11/30 04:30:14;;;;;;;;;;;20.00;46.40;;;;;;5044910;28;19969;-55
2022/11/30 04:32:40;;;;;;;;;;;20.00;46.40;;;;;;5038347;27;19919;-55
2022/11/30 04:35:06;;;;;;;;;;;20.00;46.40;;;;;;5046395;28;20000;-56
2022/11/30 04:37:31;;;;;;;;;;;20.00;46.40;;;;;;5031485;27;19956;-54
2022/11/30 04:39:57;;;;;;;;;;;20.00;46.40;;;;;;5049538;27;19925;-55
2022/11/30 04:42:22;;;;;;;;;;;20.00;46.30;;;;;;5045871;28;20375;-56
2022/11/30 04:44:48;;;;;;;;;;;20.00;46.30;;;;;;5046882;28;19916;-56
2022/11/30 04:47:13;;;;;;;;;;;20.00;46.20;;;;;;5047288;28;19917;-55
2022/11/30 04:49:39;;;;;;;;;;;20.10;46.30;;;;;;5048028;28;19952;-54
2022/11/30 04:52:04;;;;;;;;;;;20.10;46.20;;;;;;5052236;27;19913;-56
2022/11/30 04:54:29;;;;;;;;;;;20.00;46.20;;;;;;5055175;28;19919;-55
2022/11/30 04:56:55;;;;;;;;;;;20.00;46.30;;;;;;5054543;27;19917;-55
2022/11/30 04:59:20;;;;;;;;;;;20.00;46.40;;;;;;5052967;28;19917;-55
2022/11/30 05:01:46;;;;;;;;;;;19.90;46.30;;;;;;5051014;28;19913;-54
2022/11/30 05:04:11;;;;;;;;;;;20.00;46.40;;;;;;5054607;28;19948;-56
2022/11/30 05:06:36;;;;;;;;;;;20.00;46.40;;;;;;5056634;28;19924;-55
2022/11/30 05:09:02;;;;;;;;;;;20.00;46.40;;;;;;5064093;27;19923;-55
2022/11/30 05:11:27;;;;;;;;;;;19.90;46.40;;;;;;5050681;28;20189;-55
2022/11/30 05:13:53;;;;;;;;;;;19.90;46.40;;;;;;5059053;27;19917;-55
2022/11/30 05:16:18;;;;;;;;;;;20.00;46.40;;;;;;5050499;28;19917;-55
2022/11/30 05:18:44;;;;;;;;;;;20.00;46.40;;;;;;5051961;28;19919;-57
2022/11/30 05:21:10;;;;;;;;;;;20.00;46.40;;;;;;5050822;28;19959;-54
2022/11/30 05:23:35;;;;;;;;;;;19.90;46.50;;;;;;5055472;28;20012;-54
2022/11/30 05:26:01;;;;;;;;;;;19.90;46.60;;;;;;5051033;28;20358;-56
2022/11/30 05:28:26;;;;;;;;;;;19.90;46.50;;;;;;5054185;28;20303;-55
2022/11/30 05:30:52;;;;;;;;;;;19.90;46.70;;;;;;5058754;27;20279;-55
2022/11/30 05:33:17;;;;;;;;;;;19.80;46.70;;;;;;5053022;28;20294;-55
2022/11/30 05:35:43;;;;;;;;;;;19.80;46.80;;;;;;5052793;28;20296;-55
2022/11/30 05:38:08;;;;;;;;;;;19.80;46.80;;;;;;5055297;28;20264;-55
2022/11/30 05:40:34;;;;;;;;;;;19.80;46.80;;;;;;5053372;28;19912;-54
2022/11/30 05:42:59;;;;;;;;;;;19.80;46.70;;;;;;5054893;28;19952;-54
2022/11/30 05:45:25;;;;;;;;;;;19.80;46.70;;;;;;5050054;28;19917;-55
2022/11/30 05:47:50;;;;;;;;;;;19.90;46.60;;;;;;5055477;27;19923;-56
2022/11/30 05:50:16;;;;;;;;;;;19.90;46.70;;;;;;5050692;28;20394;-55
2022/11/30 05:52:41;;;;;;;;;;;19.90;46.50;;;;;;5045215;28;19917;-55
2022/11/30 05:55:07;;;;;;;;;;;19.90;46.40;;;;;;5044046;28;19920;-55
2022/11/30 05:57:36;;;;;;;;;;;19.90;46.40;;;;;;5048519;28;19920;-55
2022/11/30 06:00:05;;;;;;;;;;;19.90;46.40;;;;;;5047583;28;20027;-56
2022/11/30 06:02:31;;;;;;;;;;;19.90;46.60;;;;;;5053442;28;19916;-55
2022/11/30 06:04:56;;;;;;;;;;;19.90;46.70;;;;;;5043454;28;19939;-55
2022/11/30 06:07:22;;;;;;;;;;;19.90;46.80;;;;;;5044318;28;19952;-55
2022/11/30 06:09:47;;;;;;;;;;;19.90;46.50;;;;;;5044226;28;19925;-55
2022/11/30 06:12:13;;;;;;;;;;;19.90;46.40;;;;;;5043768;28;20427;-56
2022/11/30 06:14:38;;;;;;;;;;;19.90;46.40;;;;;;5046361;28;20357;-55
2022/11/30 06:17:03;;;;;;;;;;;19.90;46.40;;;;;;5044318;28;20280;-55
2022/11/30 06:19:29;;;;;;;;;;;20.00;46.40;;;;;;5044174;28;19956;-56
2022/11/30 06:21:54;;;;;;;;;;;19.90;46.40;;;;;;5043731;28;19917;-56
2022/11/30 06:24:20;;;;;;;;;;;20.00;46.40;;;;;;5045492;28;19928;-55
2022/11/30 06:26:45;;;;;;;;;;;20.00;46.30;;;;;;5046866;28;19964;-54
2022/11/30 06:29:11;;;;;;;;;;;20.00;46.30;;;;;;5048096;28;19920;-55
2022/11/30 06:31:36;;;;;;;;;;;20.00;46.30;;;;;;5048089;28;20609;-55
2022/11/30 06:34:01;;;;;;;;;;;20.00;46.30;;;;;;5048017;27;19912;-55
2022/11/30 06:36:27;;;;;;;;;;;20.00;46.30;;;;;;5049938;27;20015;-57
2022/11/30 06:38:53;;;;;;;;;;;20.00;46.40;;;;;;5050500;27;19991;-56
2022/11/30 06:41:18;;;;;;;;;;;19.90;46.40;;;;;;5051571;28;20441;-54
2022/11/30 06:43:44;;;;;;;;;;;19.90;46.40;;;;;;5051854;28;19999;-55
2022/11/30 06:46:10;;;;;;;;;;;19.90;46.40;;;;;;5057256;28;19917;-55
2022/11/30 06:48:35;;;;;;;;;;;19.90;46.40;;;;;;5054262;28;19916;-55
2022/11/30 06:51:03;;;;;;;;;;;19.90;46.40;;;;;;5051395;28;19925;-56
2022/11/30 06:53:28;;;;;;;;;;;19.90;46.50;;;;;;5052098;28;19943;-54
2022/11/30 06:55:54;;;;;;;;;;;19.90;46.50;;;;;;5049886;28;20295;-55
2022/11/30 06:58:19;;;;;;;;;;;19.90;46.60;;;;;;5056139;28;20294;-55
2022/11/30 07:00:45;;;;;;;;;;;19.80;46.60;;;;;;5057254;28;19973;-55
2022/11/30 07:03:10;;;;;;;;;;;19.80;46.70;;;;;;5057224;28;19915;-55
2022/11/30 07:05:42;;;;;;;;;;;19.80;46.80;;;;;;5057386;28;20236;-54
2022/11/30 07:08:08;;;;;;;;;;;19.70;46.70;;;;;;5055690;27;19913;-55
2022/11/30 07:10:37;;;;;;;;;;;19.70;46.80;;;;;;5052095;27;19973;-55
2022/11/30 07:13:03;;;;;;;;;;;19.70;46.90;;;;;;5052766;28;19947;-56
2022/11/30 07:15:28;;;;;;;;;;;19.70;46.90;;;;;;5052982;28;20292;-55
2022/11/30 07:17:54;;;;;;;;;;;19.70;46.80;;;;;;5052176;28;19953;-56
2022/11/30 07:20:19;;;;;;;;;;;19.70;46.80;;;;;;5051581;28;19920;-55
2022/11/30 07:22:44;;;;;;;;;;;19.80;46.90;;;;;;5050009;28;19992;-55
2022/11/30 07:27:54;;;;;;;;;;;19.70;46.90;;;;;;5056077;28;19961;-55
2022/11/30 07:30:20;;;;;;;;;;;19.70;46.80;;;;;;5053756;28;20016;-55
2022/11/30 07:32:45;;;;;;;;;;;19.70;46.80;;;;;;5048789;27;19916;-55
2022/11/30 07:35:11;;;;;;;;;;;19.70;46.70;;;;;;5049286;28;19912;-56
2022/11/30 07:37:36;;;;;;;;;;;19.70;46.60;;;;;;5045675;28;20051;-55
2022/11/30 07:40:03;;;;;;;;;;;19.70;46.70;;;;;;5048467;28;19917;-55
2022/11/30 07:42:29;;;;;;;;;;;19.70;47.30;;;;;;5046948;28;21105;-55
2022/11/30 07:44:55;;;;;;;;;;;19.70;46.70;;;;;;5048795;28;19920;-56
2022/11/30 07:47:20;;;;;;;;;;;19.70;46.80;;;;;;5048239;28;20279;-55
2022/11/30 07:49:45;;;;;;;;;;;19.70;46.80;;;;;;5053444;28;20050;-55
2022/11/30 07:52:11;;;;;;;;;;;19.70;46.90;;;;;;5053392;28;19962;-55
2022/11/30 07:54:36;;;;;;;;;;;19.70;46.90;;;;;;5052178;28;19920;-55
2022/11/30 07:57:02;;;;;;;;;;;19.70;46.80;;;;;;5053205;28;19924;-55
2022/11/30 07:59:27;;;;;;;;;;;19.70;46.80;;;;;;5054159;28;19923;-55
2022/11/30 08:01:52;;;;;;;;;;;19.70;46.80;;;;;;5053386;27;19988;-56
2022/11/30 08:04:18;;;;;;;;;;;19.70;46.90;;;;;;5055623;28;19962;-55
2022/11/30 08:06:43;;;;;;;;;;;19.70;46.80;;;;;;5046872;28;19932;-55
2022/11/30 08:09:09;;;;;;;;;;;19.70;46.70;;;;;;5047014;28;19917;-55
2022/11/30 08:11:35;;;;;;;;;;;19.80;46.70;;;;;;5033011;27;20254;-55
2022/11/30 08:14:01;;;;;;;;;;;19.80;46.60;;;;;;5047145;27;19919;-55
2022/11/30 08:16:27;;;;;;;;;;;19.90;47.20;;;;;;5043085;27;20325;-55
2022/11/30 08:18:56;;;;;;;;;;;19.90;46.30;;;;;;5048619;28;19925;-54
2022/11/30 08:21:21;;;;;;;;;;;20.00;46.20;;;;;;5046172;28;19976;-56
2022/11/30 08:23:51;;;;;;;;;;;20.00;46.20;;;;;;5046745;28;19975;-55
2022/11/30 08:26:17;;;;;;;;;;;20.20;46.20;;;;;;5049751;28;19921;-55
2022/11/30 08:28:43;;;;;;;;;;;20.50;46.00;;;;;;5048262;28;19913;-54
2022/11/30 08:31:10;;;;;;;;;;;20.80;45.60;;;;;;5051378;28;19932;-55
2022/11/30 08:33:35;;;;;;;;;;;21.00;45.20;;;;;;5049640;28;21030;-55
2022/11/30 08:36:07;;;;;;;;;;;21.20;45.30;;;;;;5050141;28;20405;-54
2022/11/30 08:38:33;;;;;;;;;;;21.40;44.90;;;;;;5052781;28;20406;-55
2022/11/30 08:40:59;;;;;;;;;;;21.50;44.70;;;;;;5053991;28;19920;-56
2022/11/30 08:43:24;;;;;;;;;;;21.60;44.70;;;;;;5046295;28;19919;-54
2022/11/30 08:45:50;;;;;;;;;;;21.70;44.50;;;;;;5044914;28;19916;-54
2022/11/30 08:48:15;;;;;;;;;;;21.80;44.40;;;;;;5049815;28;19959;-55
2022/11/30 08:50:41;;;;;;;;;;;21.90;44.30;;;;;;5045442;27;19931;-55
2022/11/30 08:53:06;;;;;;;;;;;21.90;44.20;;;;;;5052379;28;19927;-54
2022/11/30 08:55:31;;;;;;;;;;;22.00;44.30;;;;;;5055879;28;19931;-56
2022/11/30 08:57:57;;;;;;;;;;;22.00;44.30;;;;;;5045932;28;19924;-55
2022/11/30 09:00:22;;;;;;;;;;;22.00;44.20;;;;;;5053405;28;19921;-55
2022/11/30 09:02:48;;;;;;;;;;;22.10;44.10;;;;;;5051549;28;20529;-55
2022/11/30 09:05:13;;;;;;;;;;;22.10;44.10;;;;;;5045431;28;19949;-56
2022/11/30 09:07:39;;;;;;;;;;;22.10;44.00;;;;;;5047492;28;20307;-55
2022/11/30 09:10:04;;;;;;;;;;;22.10;44.00;;;;;;5048170;28;19917;-55
2022/11/30 09:12:32;;;;;;;;;;;22.10;43.90;;;;;;5051020;28;19916;-54
2022/11/30 09:14:58;;;;;;;;;;;22.10;44.00;;;;;;5046083;28;20434;-56
2022/11/30 09:17:23;;;;;;;;;;;22.10;44.00;;;;;;5051972;28;19917;-56
2022/11/30 09:19:49;;;;;;;;;;;22.20;44.00;;;;;;5046297;28;19921;-57
2022/11/30 09:22:14;;;;;;;;;;;22.20;44.00;;;;;;5046414;28;20475;-56
2022/11/30 09:24:40;;;;;;;;;;;22.20;43.90;;;;;;5042306;28;19921;-54
2022/11/30 09:27:05;;;;;;;;;;;22.20;43.90;;;;;;5047856;27;19921;-55
2022/11/30 09:29:31;;;;;;;;;;;22.20;43.80;;;;;;5046467;28;20283;-56
2022/11/30 09:31:57;;;;;;;;;;;22.20;43.50;;;;;;5046877;27;19936;-55
2022/11/30 09:34:22;;;;;;;;;;;22.20;43.90;;;;;;5051127;27;19920;-56
2022/11/30 09:36:47;;;;;;;;;;;22.20;43.90;;;;;;5072402;27;19921;-56
2022/11/30 09:39:13;;;;;;;;;;;22.20;43.80;;;;;;5047004;28;19917;-55
2022/11/30 09:42:11;;;;;;;;;;;22.20;43.90;;;;;;5047292;28;19916;-56
2022/11/30 09:44:39;;;;;;;;;;;22.30;43.80;;;;;;5017280;28;19917;-58
2022/11/30 09:47:09;;;;;;;;;;;22.30;43.70;;;;;;5033108;27;20621;-54
2022/11/30 09:49:36;;;;;;;;;;;22.30;43.70;;;;;;5036924;27;19955;-56
2022/11/30 09:52:03;;;;;;;;;;;22.30;43.60;;;;;;5044005;28;19958;-55
2022/11/30 09:54:47;;;;;;;;;;;22.30;43.80;;;;;;5043615;28;20675;-56
2022/11/30 09:57:24;;;;;;;;;;;22.30;43.70;;;;;;5032651;28;19921;-56
2022/11/30 09:59:56;;;;;;;;;;;22.30;43.70;;;;;;5050892;28;19917;-56
2022/11/30 10:02:24;;;;;;;;;;;22.30;43.70;;;;;;5048130;28;20452;-56
2022/11/30 10:04:49;;;;;;;;;;;22.30;43.60;;;;;;5051214;27;20383;-57
2022/11/30 10:07:24;;;;;;;;;;;22.30;43.60;;;;;;5047248;28;19921;-56
2022/11/30 10:09:53;;;;;;;;;;;22.30;43.60;;;;;;5049044;28;19924;-55
2022/11/30 10:12:20;;;;;;;;;;;22.30;43.70;;;;;;5029312;28;19917;-56
2022/11/30 10:14:52;;;;;;;;;;;22.40;43.70;;;;;;5045799;28;20015;-55
2022/11/30 10:17:21;;;;;;;;;;;22.30;43.60;;;;;;5029442;28;19913;-55
2022/11/30 10:19:55;;;;;;;;;;;22.30;43.70;;;;;;5058393;28;20457;-55
2022/11/30 10:22:23;;;;;;;;;;;22.40;43.80;;;;;;5049532;28;22443;-56
2022/11/30 10:24:55;;;;;;;;;;;22.40;43.70;;;;;;5047268;27;19921;-55
2022/11/30 10:27:44;;;;;;;;;;;22.40;43.70;;;;;;5036415;28;20381;-55
2022/11/30 10:30:36;;;;;;;;;;;22.40;43.80;;;;;;5052641;28;20366;-56
2022/11/30 10:33:17;;;;;;;;;;;22.40;43.70;;;;;;5056117;28;19927;-56
2022/11/30 10:35:49;;;;;;;;;;;22.40;43.80;;;;;;5049073;27;19920;-55
2022/11/30 10:38:16;;;;;;;;;;;22.40;43.70;;;;;;5042445;28;20375;-56
2022/11/30 10:40:45;;;;;;;;;;;22.40;43.70;;;;;;5044110;28;19960;-56
2022/11/30 10:43:14;;;;;;;;;;;22.40;43.90;;;;;;5056852;28;19913;-55
2022/11/30 10:45:47;;;;;;;;;;;22.40;43.90;;;;;;5048169;28;19920;-57
2022/11/30 10:48:20;;;;;;;;;;;22.40;43.90;;;;;;5047352;28;19920;-55
2022/11/30 10:50:46;;;;;;;;;;;22.40;44.00;;;;;;5041312;28;19976;-54
2022/11/30 10:53:11;;;;;;;;;;;22.40;44.00;;;;;;5041199;28;19987;-56
2022/11/30 10:55:41;;;;;;;;;;;22.40;44.00;;;;;;5054543;28;19919;-56
2022/11/30 10:58:06;;;;;;;;;;;22.40;44.00;;;;;;5045117;28;20041;-54
2022/11/30 11:00:32;;;;;;;;;;;22.40;44.00;;;;;;5054509;28;20012;-53
2022/11/30 11:02:57;;;;;;;;;;;22.40;44.00;;;;;;5061035;28;20017;-55
2022/11/30 11:05:23;;;;;;;;;;;22.40;44.00;;;;;;5062930;28;19955;-55
2022/11/30 11:07:51;;;;;;;;;;;22.40;44.00;;;;;;5053016;28;20381;-55
2022/11/30 11:10:22;;;;;;;;;;;22.40;44.00;;;;;;5055306;28;19916;-55
2022/11/30 11:12:51;;;;;;;;;;;22.40;44.00;;;;;;5057924;28;19908;-56
2022/11/30 11:15:21;;;;;;;;;;;22.40;44.00;;;;;;5053848;28;19917;-56
2022/11/30 11:17:47;;;;;;;;;;;22.50;44.10;;;;;;5057597;28;20050;-56
2022/11/30 11:20:32;;;;;;;;;;;22.50;44.10;;;;;;5062157;28;20053;-56
2022/11/30 11:22:58;;;;;;;;;;;22.50;44.00;;;;;;5059765;28;19916;-54
2022/11/30 11:25:25;;;;;;;;;;;22.50;44.00;;;;;;5056173;28;19939;-55
2022/11/30 11:27:51;;;;;;;;;;;22.50;44.10;;;;;;5061032;28;20061;-56
2022/11/30 11:30:23;;;;;;;;;;;22.50;44.10;;;;;;5065196;28;20393;-54
2022/11/30 11:32:58;;;;;;;;;;;22.50;44.00;;;;;;5053122;28;20288;-56
2022/11/30 11:35:36;;;;;;;;;;;22.50;44.00;;;;;;5049636;28;20017;-55
2022/11/30 11:38:02;;;;;;;;;;;22.50;43.90;;;;;;5061283;28;19959;-55
2022/11/30 11:40:28;;;;;;;;;;;22.60;44.00;;;;;;5069964;27;19920;-56
2022/11/30 11:42:54;;;;;;;;;;;22.50;43.90;;;;;;5056311;28;20355;-54
2022/11/30 11:45:20;;;;;;;;;;;22.60;43.90;;;;;;5054698;28;19913;-55
2022/11/30 11:47:47;;;;;;;;;;;22.50;43.80;;;;;;5051276;28;19913;-55
2022/11/30 11:50:25;;;;;;;;;;;22.60;43.80;;;;;;5041003;28;19917;-55
2022/11/30 11:53:13;;;;;;;;;;;22.60;44.00;;;;;;5056527;28;19957;-55
2022/11/30 11:55:40;;;;;;;;;;;22.50;43.90;;;;;;5058419;28;19927;-55
2022/11/30 11:58:07;;;;;;;;;;;22.50;43.90;;;;;;5041710;28;20271;-56
2022/11/30 12:00:32;;;;;;;;;;;22.60;44.00;;;;;;5043814;28;20367;-56
2022/11/30 12:03:06;;;;;;;;;;;22.60;44.00;;;;;;5054492;28;19921;-55
2022/11/30 12:05:35;;;;;;;;;;;22.50;43.80;;;;;;5053282;28;19913;-55
2022/11/30 12:08:02;;;;;;;;;;;22.60;43.90;;;;;;5046377;28;20328;-54
2022/11/30 12:10:30;;;;;;;;;;;22.60;43.90;;;;;;5051862;28;19916;-57
2022/11/30 12:12:55;;;;;;;;;;;22.60;43.80;;;;;;5055907;28;20372;-56
2022/11/30 12:15:31;;;;;;;;;;;22.60;43.90;;;;;;5055626;28;20037;-56
2022/11/30 12:18:01;;;;;;;;;;;22.60;44.00;;;;;;5060498;28;19920;-56
2022/11/30 12:20:33;;;;;;;;;;;22.60;43.90;;;;;;5054433;27;19920;-56
2022/11/30 12:22:58;;;;;;;;;;;22.60;43.90;;;;;;5055589;28;20382;-55
2022/11/30 12:25:25;;;;;;;;;;;22.60;43.90;;;;;;5057193;28;19917;-55
2022/11/30 12:27:56;;;;;;;;;;;22.60;44.00;;;;;;5061739;28;20321;-55
2022/11/30 12:30:27;;;;;;;;;;;22.70;44.10;;;;;;5059892;28;19917;-56
2022/11/30 12:33:03;;;;;;;;;;;22.60;44.00;;;;;;5038965;28;19982;-56
2022/11/30 12:35:31;;;;;;;;;;;22.70;44.10;;;;;;5060722;28;19916;-55
2022/11/30 12:38:02;;;;;;;;;;;22.70;44.20;;;;;;5066224;28;19912;-57
2022/11/30 12:40:31;;;;;;;;;;;22.70;44.10;;;;;;5059615;28;19996;-55
2022/11/30 12:43:01;;;;;;;;;;;22.70;44.00;;;;;;5054874;28;20012;-57
2022/11/30 12:45:33;;;;;;;;;;;22.70;44.00;;;;;;5033470;28;19917;-55
2022/11/30 12:48:09;;;;;;;;;;;22.70;44.10;;;;;;5052357;27;20398;-55
2022/11/30 12:51:07;;;;;;;;;;;22.70;44.00;;;;;;5037483;28;19928;-55
2022/11/30 12:53:33;;;;;;;;;;;22.70;43.80;;;;;;5017903;28;20276;-55
2022/11/30 12:56:01;;;;;;;;;;;22.70;44.00;;;;;;5052711;28;19921;-58
2022/11/30 12:58:36;;;;;;;;;;;22.70;43.90;;;;;;5060124;28;19912;-56
2022/11/30 13:01:06;;;;;;;;;;;22.70;44.00;;;;;;5056830;28;19916;-55
2022/11/30 13:03:43;;;;;;;;;;;22.70;44.10;;;;;;5058960;27;19959;-54
2022/11/30 13:06:11;;;;;;;;;;;22.70;44.10;;;;;;5042879;28;19925;-55
2022/11/30 13:08:56;;;;;;;;;;;22.80;44.00;;;;;;5037193;28;19912;-55
2022/11/30 13:11:27;;;;;;;;;;;22.80;43.90;;;;;;5054262;28;20295;-55
2022/11/30 13:13:53;;;;;;;;;;;22.80;43.90;;;;;;5066133;28;19913;-54
2022/11/30 13:16:19;;;;;;;;;;;22.80;44.00;;;;;;5039298;28;19921;-54
2022/11/30 13:18:45;;;;;;;;;;;22.80;44.00;;;;;;5035487;28;19909;-56
2022/11/30 13:21:15;;;;;;;;;;;22.80;44.00;;;;;;5064252;28;20329;-55
2022/11/30 13:23:42;;;;;;;;;;;22.80;44.00;;;;;;5035246;28;19964;-55
2022/11/30 13:26:11;;;;;;;;;;;22.80;44.00;;;;;;5048918;28;19913;-56
2022/11/30 13:28:40;;;;;;;;;;;22.80;44.00;;;;;;5049431;28;19921;-55
2022/11/30 13:31:07;;;;;;;;;;;22.80;44.00;;;;;;5055021;28;20012;-55
2022/11/30 13:33:33;;;;;;;;;;;22.80;44.00;;;;;;5050691;28;19921;-54
2022/11/30 13:35:58;;;;;;;;;;;22.80;43.90;;;;;;5048102;28;19966;-56
2022/11/30 13:38:24;;;;;;;;;;;22.80;44.00;;;;;;5032249;28;19954;-56
2022/11/30 13:40:53;;;;;;;;;;;22.80;44.00;;;;;;5031864;28;20274;-56
2022/11/30 13:43:18;;;;;;;;;;;22.80;44.00;;;;;;5047693;28;19928;-56
2022/11/30 13:45:44;;;;;;;;;;;22.90;44.00;;;;;;5041948;27;19955;-56
2022/11/30 13:48:36;;;;;;;;;;;22.80;43.90;;;;;;5027210;28;19924;-55
2022/11/30 13:51:01;;;;;;;;;;;22.90;44.00;;;;;;5048732;28;19920;-55
2022/11/30 13:53:33;;;;;;;;;;;22.90;43.90;;;;;;5045088;28;19909;-55
2022/11/30 13:55:59;;;;;;;;;;;22.90;44.00;;;;;;5052940;27;20008;-55
2022/11/30 13:58:25;;;;;;;;;;;22.90;44.00;;;;;;5047567;28;20293;-55
2022/11/30 14:01:00;;;;;;;;;;;22.90;44.10;;;;;;5044765;28;19912;-55
2022/11/30 14:03:27;;;;;;;;;;;22.90;44.00;;;;;;5054862;28;19912;-55
2022/11/30 14:06:19;;;;;;;;;;;22.90;44.00;;;;;;5046838;28;19924;-56
2022/11/30 14:08:44;;;;;;;;;;;22.90;44.00;;;;;;5065137;28;19924;-56
2022/11/30 14:11:16;;;;;;;;;;;23.00;44.10;;;;;;5037066;28;20280;-55
2022/11/30 14:13:42;;;;;;;;;;;23.00;44.10;;;;;;5046918;28;19946;-56
2022/11/30 14:16:21;;;;;;;;;;;22.90;44.00;;;;;;5047210;28;20643;-56
2022/11/30 14:18:47;;;;;;;;;;;22.90;44.00;;;;;;5029559;28;20020;-55
2022/11/30 14:21:15;;;;;;;;;;;22.90;44.00;;;;;;5048719;28;20007;-57